Time;durP1;ratioP1;P1;durP2;ratioP2;P2;SDS_P1;SDS_P2;PMS_P1;PMS_P2;Temp;Humidity;BMP_temperature;BMP_pressure;BME280_temperature;BME280_humidity;BME280_pressure;Samples;Min_cycle;Max_cycle;Signal;HPM_P1;HPM_P2
2022/05/29 00:00:28;;;;;;;4.72;1.35;;;;;;;13.97;65.67;100156.13;4993473;28;20463;-53
2022/05/29 00:02:56;;;;;;;3.47;1.02;;;;;;;13.97;65.76;100150.06;4993868;28;20050;-52
2022/05/29 00:05:22;;;;;;;2.47;1.48;;;;;;;13.95;65.92;100151.88;4993679;28;20054;-53
2022/05/29 00:07:50;;;;;;;6.75;1.83;;;;;;;13.94;65.81;100139.75;4993710;28;20050;-53
2022/05/29 00:10:18;;;;;;;2.60;1.38;;;;;;;13.93;65.85;100143.25;4993345;28;20057;-54
2022/05/29 00:12:45;;;;;;;3.33;1.33;;;;;;;13.93;65.97;100138.03;4993802;28;20054;-53
2022/05/29 00:15:12;;;;;;;3.33;1.63;;;;;;;13.95;65.72;100136.25;4993667;28;20399;-53
2022/05/29 00:17:38;;;;;;;4.53;1.65;;;;;;;13.94;65.81;100139.75;4993584;28;20058;-50
2022/05/29 00:20:08;;;;;;;3.40;1.45;;;;;;;13.95;65.75;100137.09;4993619;28;20058;-51
2022/05/29 00:22:34;;;;;;;4.95;1.50;;;;;;;13.93;65.78;100132.84;4993024;28;20082;-50
2022/05/29 00:25:05;;;;;;;5.07;1.58;;;;;;;13.91;65.88;100140.69;4993633;28;20058;-54
2022/05/29 00:27:32;;;;;;;4.72;1.50;;;;;;;13.88;65.91;100136.44;4994452;28;20530;-50
2022/05/29 00:29:58;;;;;;;8.45;1.17;;;;;;;13.88;66.01;100141.66;4999740;28;20478;-52
2022/05/29 00:32:25;;;;;;;3.78;1.40;;;;;;;13.87;66.36;100134.72;4999914;28;20054;-53
2022/05/29 00:34:52;;;;;;;3.13;1.50;;;;;;;13.87;66.05;100139.94;5000255;28;20054;-54
2022/05/29 00:37:19;;;;;;;4.38;1.40;;;;;;;13.89;66.11;100139.88;4999723;28;20046;-51
2022/05/29 00:39:48;;;;;;;3.08;1.10;;;;;;;13.89;66.30;100143.34;5000017;28;20050;-51
2022/05/29 00:42:16;;;;;;;5.68;1.50;;;;;;;13.92;66.11;100133.72;4999199;28;20054;-53
2022/05/29 00:44:42;;;;;;;4.82;1.58;;;;;;;13.92;66.03;100131.13;5005818;28;20081;-51
2022/05/29 00:47:14;;;;;;;3.72;1.23;;;;;;;13.90;66.07;100134.63;5019457;28;20152;-51
2022/05/29 00:49:42;;;;;;;3.55;1.42;;;;;;;13.87;66.06;100139.94;5007846;28;20399;-53
2022/05/29 00:52:14;;;;;;;3.90;1.25;;;;;;;13.86;66.22;100133.03;4999766;28;20054;-52
2022/05/29 00:54:45;;;;;;;3.15;1.30;;;;;;;13.87;66.39;100137.34;4999868;28;20050;-53
2022/05/29 00:57:15;;;;;;;5.25;1.30;;;;;;;13.88;66.15;100132.97;4999636;28;20054;-53
2022/05/29 00:59:43;;;;;;;3.30;1.38;;;;;;;13.88;66.30;100146.00;4999732;28;20120;-53
2022/05/29 01:02:10;;;;;;;3.38;1.20;;;;;;;13.86;66.38;100140.84;4999587;28;20061;-52
2022/05/29 01:04:39;;;;;;;3.97;1.20;;;;;;;13.87;66.25;100145.16;4999638;28;20054;-54
2022/05/29 01:07:08;;;;;;;4.10;1.30;;;;;;;13.89;66.42;100145.09;4996283;28;20069;-51
2022/05/29 01:09:35;;;;;;;3.97;1.20;;;;;;;13.87;66.45;100145.16;4999249;28;20054;-50
2022/05/29 01:12:11;;;;;;;3.55;1.45;;;;;;;13.89;66.58;100148.56;4999616;28;20058;-51
2022/05/29 01:14:53;;;;;;;6.72;1.48;;;;;;;13.90;66.43;100145.06;4999732;28;20069;-52
2022/05/29 01:17:31;;;;;;;4.65;1.63;;;;;;;13.90;66.77;100150.25;4999648;28;20061;-50
2022/05/29 01:20:13;;;;;;;3.05;1.50;;;;;;;13.93;66.54;100153.69;4999608;28;20060;-51
2022/05/29 01:23:20;;;;;;;2.22;1.00;;;;;;;13.94;66.61;100151.03;4999480;28;20050;-53
2022/05/29 01:26:08;;;;;;;4.45;1.23;;;;;;;13.92;66.82;100157.19;4939252;29;20078;-51
2022/05/29 01:28:48;;;;;;;4.13;1.30;;;;;;;13.92;66.79;100157.19;4993650;28;20042;-49
2022/05/29 01:31:26;;;;;;;3.15;1.30;;;;;;;13.93;66.86;100156.28;4999718;28;20081;-52
2022/05/29 01:33:59;;;;;;;4.15;1.48;;;;;;;13.93;67.17;100156.28;4999375;28;20046;-54
2022/05/29 01:36:33;;;;;;;3.90;1.40;;;;;;;13.94;67.11;100160.59;4999598;28;20061;-53
2022/05/29 01:39:03;;;;;;;1.63;1.10;;;;;;;13.94;67.14;100160.59;4998081;28;20055;-54
2022/05/29 01:41:33;;;;;;;3.17;1.20;;;;;;;13.94;67.33;100158.84;4995918;28;20057;-49
2022/05/29 01:44:09;;;;;;;2.80;1.13;;;;;;;13.95;67.04;100162.28;4996568;28;20078;-53
2022/05/29 01:46:36;;;;;;;;;;;;;;;13.87;67.62;100163.38;5010550;28;20065;-50
2022/05/29 01:49:14;;;;;;;3.72;0.95;;;;;;;13.90;67.55;100163.28;4996230;28;19932;-52
2022/05/29 01:51:47;;;;;;;4.28;1.20;;;;;;;13.93;67.26;100164.09;5002616;28;20081;-54
2022/05/29 01:54:19;;;;;;;2.17;1.10;;;;;;;13.95;67.63;100167.50;5015687;28;20053;-52
2022/05/29 01:56:49;;;;;;;4.90;1.33;;;;;;;13.95;67.48;100167.50;5015693;28;20073;-51
2022/05/29 01:59:22;;;;;;;2.67;1.40;;;;;;;13.96;67.65;100174.41;5015776;28;20058;-51
2022/05/29 02:01:54;;;;;;;5.20;1.00;;;;;;;13.98;67.67;100172.63;5015450;28;20475;-52
2022/05/29 02:04:24;;;;;;;9.10;1.30;;;;;;;13.98;67.74;100172.63;5015457;28;20061;-53
2022/05/29 02:09:42;;;;;;;2.45;1.02;;;;;;;13.94;67.87;100166.66;4995283;28;20125;-53
2022/05/29 02:12:16;;;;;;;3.22;1.38;;;;;;;13.95;67.79;100172.72;4995333;28;20463;-53
2022/05/29 02:14:50;;;;;;;1.83;1.13;;;;;;;13.95;68.15;100172.72;4995197;28;20505;-55
2022/05/29 02:17:21;;;;;;;2.00;1.20;;;;;;;13.95;68.18;100172.72;4995298;28;20054;-53
2022/05/29 02:19:52;;;;;;;3.58;1.33;;;;;;;13.95;68.20;100172.72;4995533;28;20046;-53
2022/05/29 02:22:23;;;;;;;3.65;1.30;;;;;;;13.94;68.07;100178.84;4995920;28;20050;-54
2022/05/29 02:24:53;;;;;;;3.85;1.42;;;;;;;13.93;68.36;100177.13;4995600;28;20050;-55
2022/05/29 02:27:31;;;;;;;3.55;1.17;;;;;;;13.93;68.24;100179.72;4995613;28;20069;-53
2022/05/29 02:30:00;;;;;;;5.43;1.35;;;;;;;13.90;68.11;100176.31;4995685;28;20062;-51
2022/05/29 02:32:38;;;;;;;4.95;1.50;;;;;;;13.90;68.22;100181.53;4995463;28;20438;-53
2022/05/29 02:35:11;;;;;;;2.88;1.48;;;;;;;13.88;68.51;100178.13;4995070;28;20055;-54
2022/05/29 02:37:45;;;;;;;3.55;1.30;;;;;;;13.87;68.49;100181.63;4995281;28;20054;-51
2022/05/29 02:40:21;;;;;;;2.65;1.27;;;;;;;13.87;68.50;100181.63;4995411;28;20050;-51
2022/05/29 02:42:56;;;;;;;2.22;1.10;;;;;;;13.87;68.52;100184.22;4995316;28;20058;-51
2022/05/29 02:45:32;;;;;;;3.22;1.50;;;;;;;13.87;68.24;100180.78;5006996;28;20042;-50
2022/05/29 02:48:05;;;;;;;2.90;1.38;;;;;;;13.86;68.66;100189.50;5007877;28;20050;-51
2022/05/29 02:50:44;;;;;;;2.70;1.30;;;;;;;13.86;68.31;100190.34;4994709;28;20400;-51
2022/05/29 02:53:13;;;;;;;4.20;1.30;;;;;;;13.86;68.66;100189.50;4995103;28;20046;-51
2022/05/29 02:55:42;;;;;;;1.60;1.10;;;;;;;13.87;68.32;100192.03;4995093;28;20046;-52
2022/05/29 02:58:18;;;;;;;3.22;1.38;;;;;;;13.89;68.35;100194.59;4995042;28;20145;-51
2022/05/29 03:00:59;;;;;;;3.80;1.20;;;;;;;13.88;68.18;100193.75;4995131;28;20065;-51
2022/05/29 03:03:34;;;;;;;1.90;1.15;;;;;;;13.88;68.66;100192.91;4994548;28;20595;-51
2022/05/29 03:06:14;;;;;;;3.87;1.30;;;;;;;13.88;68.48;100198.09;4994928;28;20046;-50
2022/05/29 03:08:55;;;;;;;1.98;1.02;;;;;;;13.88;68.26;100204.16;4994922;28;20073;-51
2022/05/29 03:11:33;;;;;;;3.53;1.60;;;;;;;13.89;68.49;100205.88;4994841;28;20140;-52
2022/05/29 03:14:05;;;;;;;1.88;1.13;;;;;;;13.89;68.47;100205.88;4994706;28;20069;-53
2022/05/29 03:16:42;;;;;;;3.72;1.73;;;;;;;13.89;68.31;100216.31;4994518;28;20050;-51
2022/05/29 03:19:22;;;;;;;3.10;1.20;;;;;;;13.89;68.22;100213.69;4994528;28;20058;-55
2022/05/29 03:21:56;;;;;;;2.65;1.17;;;;;;;13.90;68.24;100218.00;4994416;28;20129;-52
2022/05/29 03:24:29;;;;;;;2.83;1.48;;;;;;;13.89;68.50;100215.44;4994046;28;20424;-53
2022/05/29 03:27:03;;;;;;;2.38;1.10;;;;;;;13.91;68.28;100226.69;4994504;28;20065;-54
2022/05/29 03:29:37;;;;;;;2.67;1.20;;;;;;;13.92;68.30;100224.91;4994280;28;20050;-55
2022/05/29 03:32:07;;;;;;;2.53;1.20;;;;;;;13.89;68.08;100226.72;4974943;28;20054;-51
2022/05/29 03:34:35;;;;;;;4.20;1.48;;;;;;;13.89;68.14;100224.13;4975067;28;20047;-51
2022/05/29 03:37:01;;;;;;;3.03;1.30;;;;;;;13.90;67.98;100227.56;4974674;28;20058;-53
2022/05/29 03:39:28;;;;;;;3.28;1.27;;;;;;;13.90;68.19;100228.44;4974808;28;20047;-51
2022/05/29 03:41:55;;;;;;;2.33;1.20;;;;;;;13.90;68.34;100231.03;4974594;28;20427;-54
2022/05/29 03:44:24;;;;;;;2.15;1.13;;;;;;;13.92;68.06;100230.13;4985945;28;20046;-53
2022/05/29 03:46:51;;;;;;;1.42;1.02;;;;;;;13.92;68.06;100230.13;5013827;28;20060;-52
2022/05/29 03:49:21;;;;;;;3.40;1.15;;;;;;;13.92;68.32;100230.13;5005317;28;20050;-53
2022/05/29 03:51:49;;;;;;;3.15;1.20;;;;;;;13.93;68.31;100227.47;4993912;28;20054;-51
2022/05/29 03:54:16;;;;;;;2.15;1.10;;;;;;;13.95;68.15;100224.84;4994061;28;20042;-54
2022/05/29 03:56:42;;;;;;;2.17;1.20;;;;;;;13.95;68.27;100232.66;4993770;28;20065;-53
2022/05/29 03:59:10;;;;;;;2.08;1.17;;;;;;;13.97;68.09;100231.69;4993899;28;20061;-52
2022/05/29 04:01:37;;;;;;;1.83;1.00;;;;;;;13.98;68.15;100229.94;4993981;28;20065;-51
2022/05/29 04:04:04;;;;;;;2.20;0.93;;;;;;;14.00;68.19;100238.56;4993474;28;20061;-51
2022/05/29 04:06:34;;;;;;;2.78;1.00;;;;;;;14.02;68.19;100237.63;4993877;28;20132;-51
2022/05/29 04:14:30;;;;;;;3.33;1.38;;;;;;;14.03;68.20;100252.34;4993594;28;20141;-51
2022/05/29 04:16:57;;;;;;;2.45;1.10;;;;;;;14.04;67.95;100254.06;4993825;28;20058;-51
2022/05/29 04:19:23;;;;;;;2.47;1.30;;;;;;;14.06;68.17;100254.06;4993542;28;20531;-52
2022/05/29 04:21:51;;;;;;;1.75;1.15;;;;;;;14.08;68.14;100257.47;4993209;28;20142;-52
2022/05/29 04:24:19;;;;;;;1.92;1.10;;;;;;;14.08;67.92;100252.25;4993479;28;20164;-53
2022/05/29 04:26:46;;;;;;;3.00;1.02;;;;;;;14.09;68.08;100248.75;4992936;28;20128;-51
2022/05/29 04:29:14;;;;;;;2.60;1.20;;;;;;;14.11;67.94;100241.72;4993661;28;20046;-51
2022/05/29 04:32:59;;;;;;;2.50;1.02;;;;;;;14.15;67.60;100248.56;4993480;28;20046;-51
2022/05/29 04:34:26;;;;;;;1.83;1.27;;;;;;;14.17;67.98;100246.75;4993293;28;20054;-51
2022/05/29 04:36:57;;;;;;;3.55;1.10;;;;;;;14.19;67.57;100251.03;4993420;28;20149;-54
2022/05/29 04:39:23;;;;;;;3.42;1.42;;;;;;;14.21;67.73;100248.38;4993600;28;20047;-54
2022/05/29 04:41:50;;;;;;;2.53;1.00;;;;;;;14.24;67.55;100250.03;4993377;28;20065;-51
2022/05/29 04:44:16;;;;;;;2.20;1.27;;;;;;;14.27;67.77;100253.38;4995903;28;20067;-51
2022/05/29 04:46:43;;;;;;;3.33;1.65;;;;;;;14.29;67.41;100251.59;5013045;28;20050;-51
2022/05/29 04:49:09;;;;;;;3.33;1.42;;;;;;;14.33;67.48;100254.94;5006066;28;20054;-51
2022/05/29 04:51:36;;;;;;;2.33;1.27;;;;;;;14.36;67.47;100253.09;4993514;28;20058;-51
2022/05/29 04:54:04;;;;;;;3.53;1.40;;;;;;;14.39;67.55;100253.00;4993305;28;20050;-51
2022/05/29 04:56:30;;;;;;;2.25;1.10;;;;;;;14.41;67.41;100261.63;4993162;28;20050;-54
2022/05/29 04:58:57;;;;;;;4.85;1.50;;;;;;;14.44;67.12;100256.34;4993121;28;20391;-52
2022/05/29 05:01:23;;;;;;;4.47;1.73;;;;;;;14.44;67.30;100261.56;4993544;28;20054;-54
2022/05/29 05:03:49;;;;;;;2.35;1.40;;;;;;;14.47;67.13;100260.59;4989893;28;20058;-51
2022/05/29 05:06:16;;;;;;;4.10;1.40;;;;;;;14.48;67.30;100263.16;4986883;28;20116;-51
2022/05/29 05:08:42;;;;;;;3.55;1.38;;;;;;;14.48;67.37;100273.59;5001086;28;20101;-54
2022/05/29 05:11:10;;;;;;;3.55;1.10;;;;;;;14.51;67.30;100272.66;5012516;28;20494;-52
2022/05/29 05:13:37;;;;;;;4.18;1.60;;;;;;;14.51;67.12;100270.88;5012308;28;20727;-51
2022/05/29 05:16:05;;;;;;;4.00;1.50;;;;;;;14.51;67.11;100273.50;5013317;28;20050;-51
2022/05/29 05:18:32;;;;;;;4.95;1.50;;;;;;;14.51;66.92;100276.09;4996507;28;20065;-51
2022/05/29 05:20:59;;;;;;;3.45;1.48;;;;;;;14.52;66.95;100280.41;4996388;28;20387;-54
2022/05/29 05:23:27;;;;;;;2.95;1.58;;;;;;;14.55;67.26;100283.84;4996427;28;20676;-53
2022/05/29 05:25:54;;;;;;;3.70;1.27;;;;;;;14.57;67.14;100293.34;4996610;28;20148;-51
2022/05/29 05:28:21;;;;;;;3.65;1.50;;;;;;;14.60;67.07;100292.41;4996072;28;20452;-51
2022/05/29 05:30:48;;;;;;;3.42;1.05;;;;;;;14.60;67.06;100300.22;4996155;28;20411;-53
2022/05/29 05:33:16;;;;;;;3.67;1.50;;;;;;;14.58;67.63;100304.63;4996645;28;20120;-51
2022/05/29 05:35:42;;;;;;;3.38;1.58;;;;;;;14.59;67.82;100301.13;4996594;28;20055;-51
2022/05/29 05:38:09;;;;;;;4.03;1.70;;;;;;;14.58;67.85;100305.47;4996422;28;20061;-51
2022/05/29 05:40:35;;;;;;;2.72;1.63;;;;;;;14.55;68.27;100300.34;4996217;28;20073;-53
2022/05/29 05:43:02;;;;;;;3.80;1.95;;;;;;;14.56;68.35;100307.25;4996348;28;20061;-54
2022/05/29 05:45:31;;;;;;;2.15;1.33;;;;;;;14.57;68.53;100305.50;5008362;28;20399;-51
2022/05/29 05:47:57;;;;;;;4.95;1.60;;;;;;;14.59;68.58;100311.56;5016073;28;20088;-54
2022/05/29 05:50:24;;;;;;;4.13;1.95;;;;;;;14.59;68.53;100314.16;4998404;28;20667;-51
2022/05/29 05:52:50;;;;;;;6.60;2.15;;;;;;;14.60;68.52;100313.25;4983692;28;20085;-52
2022/05/29 05:55:17;;;;;;;2.78;1.40;;;;;;;14.61;68.49;100314.97;4976905;28;20043;-51
2022/05/29 05:57:43;;;;;;;4.15;1.55;;;;;;;14.61;68.50;100309.75;4976869;28;20061;-53
2022/05/29 06:00:13;;;;;;;2.85;1.83;;;;;;;14.61;68.54;100314.97;4976652;28;20065;-55
2022/05/29 06:02:41;;;;;;;3.92;1.83;;;;;;;14.60;68.35;100318.47;4976417;28;20051;-51
2022/05/29 06:05:09;;;;;;;3.45;1.48;;;;;;;14.62;68.57;100316.69;4976718;28;20138;-51
2022/05/29 06:07:35;;;;;;;3.35;1.50;;;;;;;14.65;68.53;100321.78;4976534;28;20070;-51
2022/05/29 06:10:02;;;;;;;2.78;1.80;;;;;;;14.69;68.44;100320.78;4994728;28;20093;-53
2022/05/29 06:12:28;;;;;;;3.08;1.85;;;;;;;14.71;68.74;100322.44;4995956;28;20050;-51
2022/05/29 06:14:54;;;;;;;5.00;1.73;;;;;;;14.74;68.37;100321.50;4996018;28;20138;-51
2022/05/29 06:17:21;;;;;;;5.05;2.10;;;;;;;14.77;68.76;100316.19;4996040;28;20054;-51
2022/05/29 06:19:49;;;;;;;6.70;2.20;;;;;;;14.81;68.68;100315.19;4995623;28;20076;-51
2022/05/29 06:22:15;;;;;;;6.10;2.42;;;;;;;14.79;68.64;100319.59;4995644;28;20510;-51
2022/05/29 06:24:42;;;;;;;4.72;2.25;;;;;;;14.81;68.36;100329.06;4995675;28;20065;-51
2022/05/29 06:27:09;;;;;;;5.75;2.15;;;;;;;14.85;68.52;100329.84;4995068;28;20054;-52
2022/05/29 06:29:35;;;;;;;4.28;2.00;;;;;;;14.88;68.52;100329.72;4995525;28;20065;-54
2022/05/29 06:32:04;;;;;;;4.90;2.20;;;;;;;14.90;68.50;100327.94;4995623;28;20054;-54
2022/05/29 06:34:30;;;;;;;4.78;1.80;;;;;;;14.90;68.36;100330.53;4995745;28;20078;-51
2022/05/29 06:36:58;;;;;;;3.25;1.80;;;;;;;14.92;68.17;100336.56;4995429;28;20065;-52
2022/05/29 06:39:24;;;;;;;3.20;1.73;;;;;;;14.95;68.18;100335.59;4995256;28;20050;-51
2022/05/29 06:41:51;;;;;;;2.92;1.75;;;;;;;14.95;68.14;100331.22;4995427;28;20054;-53
2022/05/29 06:44:17;;;;;;;6.93;2.30;;;;;;;14.96;67.92;100342.53;4998038;28;20052;-52
2022/05/29 06:46:44;;;;;;;4.03;1.67;;;;;;;14.94;67.75;100337.34;5014928;28;20061;-54
2022/05/29 06:49:10;;;;;;;3.50;1.75;;;;;;;14.93;67.26;100338.25;5007493;28;20054;-53
2022/05/29 06:51:37;;;;;;;6.07;1.70;;;;;;;14.96;67.74;100337.31;4995323;28;20051;-55
2022/05/29 06:54:05;;;;;;;4.97;2.03;;;;;;;15.02;67.37;100337.97;4995214;28;20054;-55
2022/05/29 06:56:32;;;;;;;6.07;1.52;;;;;;;15.09;67.22;100339.50;4995069;28;20069;-54
2022/05/29 06:58:59;;;;;;;3.90;1.80;;;;;;;15.14;67.13;100332.34;4995125;28;20069;-52
2022/05/29 07:07:00;;;;;;;4.93;1.60;;;;;;;15.19;66.55;100332.19;4994676;28;20089;-54
2022/05/29 07:09:30;;;;;;;3.85;2.03;;;;;;;15.23;66.02;100339.03;4994616;28;20065;-55
2022/05/29 07:12:01;;;;;;;4.07;2.00;;;;;;;15.28;65.96;100338.88;4994926;28;20053;-54
2022/05/29 07:14:29;;;;;;;3.63;2.05;;;;;;;15.33;65.53;100339.56;4994610;28;20054;-55
2022/05/29 07:16:55;;;;;;;4.68;1.85;;;;;;;15.39;65.29;100341.97;4994444;28;20046;-53
2022/05/29 07:19:24;;;;;;;3.00;1.75;;;;;;;15.47;65.34;100350.38;4992690;28;20054;-54
2022/05/29 07:21:56;;;;;;;3.72;2.15;;;;;;;15.52;64.92;100340.63;4994044;28;20503;-53
2022/05/29 07:24:23;;;;;;;4.03;2.20;;;;;;;15.61;64.50;100353.44;4994238;28;20476;-52
2022/05/29 07:26:51;;;;;;;4.03;2.00;;;;;;;15.72;64.50;100345.22;4994414;28;20058;-51
2022/05/29 07:29:18;;;;;;;3.80;1.85;;;;;;;15.83;63.99;100347.44;4994239;28;20058;-51
2022/05/29 07:31:44;;;;;;;4.50;1.60;;;;;;;16.04;62.94;100357.09;4994155;28;20093;-51
2022/05/29 07:34:11;;;;;;;3.65;1.70;;;;;;;16.19;62.83;100351.31;4993846;28;20443;-54
2022/05/29 07:36:38;;;;;;;3.60;1.65;;;;;;;16.49;61.81;100348.44;4994290;28;20050;-55
2022/05/29 07:39:05;;;;;;;3.45;1.70;;;;;;;16.75;61.42;100350.94;4991997;28;20490;-51
2022/05/29 07:44:18;;;;;;;3.67;1.83;;;;;;;17.37;59.49;100355.38;4996669;28;20056;-51
2022/05/29 07:46:45;;;;;;;4.15;1.60;;;;;;;17.52;58.78;100349.47;5013411;28;20056;-51
2022/05/29 07:49:11;;;;;;;3.80;1.65;;;;;;;17.64;58.52;100354.19;5005970;28;20391;-51
2022/05/29 07:51:39;;;;;;;3.63;1.80;;;;;;;17.69;57.76;100350.53;4993988;28;20050;-53
2022/05/29 07:54:06;;;;;;;3.90;1.35;;;;;;;17.66;57.37;100355.00;4993973;28;20062;-53
2022/05/29 07:56:32;;;;;;;4.38;1.63;;;;;;;17.62;57.57;100361.25;4993823;28;20046;-51
2022/05/29 07:58:59;;;;;;;2.78;1.58;;;;;;;17.59;57.70;100366.63;4992838;28;20549;-51
2022/05/29 08:01:27;;;;;;;2.55;1.33;;;;;;;17.57;57.38;100368.47;4993909;28;20050;-51
2022/05/29 08:03:53;;;;;;;3.13;1.33;;;;;;;17.54;57.19;100368.59;4993893;28;20061;-55
2022/05/29 08:06:20;;;;;;;4.53;1.83;;;;;;;17.50;57.23;100369.66;4993709;28;20046;-55
2022/05/29 08:08:46;;;;;;;4.72;1.50;;;;;;;17.47;57.11;100372.41;4993555;28;20062;-51
2022/05/29 08:11:14;;;;;;;4.30;1.67;;;;;;;17.43;56.92;100365.59;4993018;28;20054;-52
2022/05/29 08:13:42;;;;;;;2.58;1.20;;;;;;;17.33;56.68;100369.53;4993498;28;20349;-51
2022/05/29 08:16:08;;;;;;;3.22;1.48;;;;;;;17.29;57.07;100378.44;4993797;28;20054;-50
2022/05/29 08:18:36;;;;;;;3.22;1.65;;;;;;;17.28;57.01;100379.34;4993762;28;20054;-51
2022/05/29 08:21:02;;;;;;;2.83;1.65;;;;;;;17.26;57.03;100381.19;4991632;28;20046;-54
2022/05/29 08:23:29;;;;;;;5.50;1.80;;;;;;;17.26;56.98;100381.19;4993625;28;20080;-51
2022/05/29 08:31:25;;;;;;;4.30;1.65;;;;;;;17.21;56.15;100381.38;4984347;28;20057;-51
2022/05/29 08:33:52;;;;;;;5.03;1.60;;;;;;;17.26;56.29;100383.78;4983767;28;20070;-54
2022/05/29 08:36:24;;;;;;;4.28;1.52;;;;;;;17.26;55.94;100389.03;4992090;28;20054;-53
2022/05/29 08:38:52;;;;;;;4.97;1.77;;;;;;;17.25;56.00;100395.19;4993677;28;20073;-53
2022/05/29 08:41:23;;;;;;;2.40;1.30;;;;;;;17.25;55.26;100397.81;4993628;28;20140;-52
2022/05/29 08:44:02;;;;;;;3.35;1.23;;;;;;;17.30;55.03;100401.94;4992009;28;20601;-51
2022/05/29 08:46:32;;;;;;;2.90;1.20;;;;;;;17.35;55.13;100396.50;4973715;28;20082;-54
2022/05/29 08:49:00;;;;;;;4.10;1.60;;;;;;;17.43;54.68;100394.41;4977263;28;20054;-51
2022/05/29 08:51:42;;;;;;;3.33;1.60;;;;;;;17.51;54.63;100391.47;4996384;28;20482;-51
2022/05/29 08:54:12;;;;;;;2.80;1.48;;;;;;;17.58;54.57;100391.16;4985275;28;20054;-54
2022/05/29 08:56:45;;;;;;;4.60;1.60;;;;;;;17.67;54.55;100393.41;4994637;28;20042;-54
2022/05/29 08:59:23;;;;;;;4.43;1.60;;;;;;;17.80;54.46;100403.38;4996401;28;20058;-54
2022/05/29 09:02:00;;;;;;;2.13;1.33;;;;;;;17.89;53.78;100400.38;4996204;28;20054;-53
2022/05/29 09:04:33;;;;;;;4.38;1.73;;;;;;;17.99;54.00;100404.28;4996803;28;20050;-53
2022/05/29 09:07:02;;;;;;;2.50;1.15;;;;;;;18.06;53.71;100405.72;4997088;28;20050;-53
2022/05/29 09:09:35;;;;;;;7.68;1.40;;;;;;;18.21;53.37;100398.94;4996734;28;20058;-54
2022/05/29 09:12:05;;;;;;;4.53;1.80;;;;;;;18.39;52.77;100408.59;4995415;28;20506;-54
2022/05/29 09:14:41;;;;;;;3.30;1.45;;;;;;;18.57;52.05;100404.28;4996454;28;20061;-51
2022/05/29 09:17:12;;;;;;;2.10;1.17;;;;;;;18.71;51.57;100407.13;4996748;28;20057;-52
2022/05/29 09:19:47;;;;;;;2.13;1.38;;;;;;;18.77;51.03;100406.88;4996974;28;20054;-53
2022/05/29 09:22:19;;;;;;;10.45;1.90;;;;;;;18.81;50.81;100411.06;4998073;28;20042;-54
2022/05/29 09:24:57;;;;;;;4.13;1.48;;;;;;;18.82;50.66;100402.25;4998655;28;20057;-54
2022/05/29 09:27:26;;;;;;;2.83;1.63;;;;;;;18.88;50.95;100404.59;4996477;28;20050;-52
2022/05/29 09:29:53;;;;;;;2.88;1.50;;;;;;;19.03;51.00;100396.88;4995807;28;20050;-54
2022/05/29 09:32:21;;;;;;;3.83;1.20;;;;;;;19.20;51.05;100399.53;4995372;28;20526;-51
2022/05/29 09:35:00;;;;;;;4.57;1.25;;;;;;;19.38;49.26;100390.75;4995624;28;20069;-51
2022/05/29 09:37:37;;;;;;;3.13;1.20;;;;;;;19.48;48.66;100399.88;4995886;28;20065;-51
2022/05/29 09:40:10;;;;;;;3.90;1.35;;;;;;;19.59;48.27;100395.88;4995380;28;20069;-51
2022/05/29 09:42:40;;;;;;;1.50;0.95;;;;;;;19.73;47.55;100388.13;4991243;28;20086;-52
2022/05/29 09:45:14;;;;;;;2.67;1.05;;;;;;;19.82;46.59;100387.69;4996342;28;20046;-51
2022/05/29 09:50:44;;;;;;;2.25;1.15;;;;;;;20.08;46.16;100395.06;4994491;28;20518;-52
2022/05/29 09:53:13;;;;;;;4.45;1.20;;;;;;;20.17;45.89;100394.56;4996367;28;20073;-52
2022/05/29 09:55:51;;;;;;;2.85;1.13;;;;;;;20.28;45.43;100395.75;4996538;28;20062;-51
2022/05/29 09:58:27;;;;;;;5.13;1.35;;;;;;;20.36;45.00;100394.44;4996466;28;20054;-51
2022/05/29 10:01:02;;;;;;;2.90;1.23;;;;;;;20.47;45.36;100396.53;4995087;28;20112;-54
2022/05/29 10:03:44;;;;;;;6.32;1.27;;;;;;;20.52;45.55;100397.13;4995742;28;20078;-53
2022/05/29 10:06:17;;;;;;;2.42;1.33;;;;;;;20.51;45.53;100398.06;4996003;28;20113;-50
2022/05/29 10:08:45;;;;;;;3.80;1.73;;;;;;;20.48;45.61;100411.38;4995590;28;20159;-54
2022/05/29 10:11:21;;;;;;;4.05;1.83;;;;;;;20.44;45.32;100410.72;4995256;28;20471;-53
2022/05/29 10:13:49;;;;;;;4.40;1.20;;;;;;;20.36;45.58;100412.03;4995954;28;20474;-51
2022/05/29 10:16:31;;;;;;;3.30;1.42;;;;;;;20.34;45.30;100413.88;4995861;28;20052;-53
2022/05/29 10:18:58;;;;;;;3.60;1.60;;;;;;;20.34;45.80;100416.53;4995787;28;20061;-53
2022/05/29 10:21:30;;;;;;;2.58;1.00;;;;;;;20.34;45.31;100421.78;4995298;28;20061;-52
2022/05/29 10:24:11;;;;;;;2.50;1.27;;;;;;;20.31;43.99;100421.94;4998568;28;20058;-50
2022/05/29 10:26:38;;;;;;;3.35;1.30;;;;;;;20.26;44.79;100424.78;5013486;28;20046;-50
2022/05/29 10:29:15;;;;;;;2.42;1.25;;;;;;;20.20;44.42;100425.13;5015013;28;20654;-50
2022/05/29 10:31:42;;;;;;;2.47;1.10;;;;;;;20.15;44.73;100421.88;5014935;28;20398;-50
2022/05/29 10:34:10;;;;;;;5.38;1.20;;;;;;;20.13;44.74;100424.59;5014811;28;20066;-50
2022/05/29 10:36:40;;;;;;;2.72;1.08;;;;;;;20.16;44.88;100421.81;5015330;28;20050;-53
2022/05/29 10:39:11;;;;;;;4.75;1.55;;;;;;;20.21;45.12;100420.72;5015164;28;20140;-52
2022/05/29 10:41:39;;;;;;;2.97;1.52;;;;;;;20.22;45.25;100417.16;5014811;28;20050;-55
2022/05/29 10:44:06;;;;;;;3.60;1.45;;;;;;;20.25;45.79;100422.25;5013773;28;20069;-52
2022/05/29 10:46:43;;;;;;;3.22;1.02;;;;;;;20.25;44.84;100428.38;4995113;28;20474;-51
2022/05/29 10:49:25;;;;;;;3.58;1.02;;;;;;;20.26;45.02;100439.75;4995037;28;20050;-51
2022/05/29 10:52:28;;;;;;;2.03;0.82;;;;;;;20.21;46.08;100431.25;4995295;28;20054;-51
2022/05/29 10:55:19;;;;;;;3.08;1.20;;;;;;;20.15;47.94;100442.94;4995007;28;20057;-54
2022/05/29 10:58:02;;;;;;;2.00;1.08;;;;;;;20.04;48.53;100435.63;4995066;28;20065;-55
2022/05/29 11:00:45;;;;;;;1.83;0.90;;;;;;;19.88;49.38;100429.44;4994723;28;20072;-55
2022/05/29 11:03:41;;;;;;;1.90;1.10;;;;;;;19.70;50.09;100430.38;5003405;28;20061;-54
2022/05/29 11:06:36;;;;;;;3.47;1.10;;;;;;;19.53;49.90;100428.59;5003707;28;20049;-52
2022/05/29 11:09:25;;;;;;;3.03;0.98;;;;;;;19.37;49.13;100422.38;4985453;28;20054;-51
2022/05/29 11:12:01;;;;;;;1.83;0.75;;;;;;;19.29;49.14;100420.13;4994962;28;20057;-52
2022/05/29 11:14:45;;;;;;;2.08;0.88;;;;;;;19.29;49.27;100420.13;4994818;28;20058;-52
2022/05/29 11:17:22;;;;;;;1.90;0.80;;;;;;;19.31;50.71;100420.91;4994802;28;20086;-52
2022/05/29 11:20:16;;;;;;;2.03;0.90;;;;;;;19.37;51.78;100423.22;4994899;28;20054;-54
2022/05/29 11:22:54;;;;;;;3.40;1.15;;;;;;;19.43;51.54;100422.91;4994594;28;20163;-53
2022/05/29 11:25:40;;;;;;;1.67;1.05;;;;;;;19.50;50.87;100426.09;4994887;28;20054;-54
2022/05/29 11:28:16;;;;;;;;;;;;;;;19.49;49.93;100433.13;4994838;28;20105;-52
2022/05/29 11:30:57;;;;;;;1.77;0.73;;;;;;;19.58;49.74;100431.84;4994193;28;20262;-52
2022/05/29 11:33:36;;;;;;;1.55;0.93;;;;;;;19.66;49.89;100434.94;4994301;28;20066;-55
2022/05/29 11:36:21;;;;;;;2.83;1.60;;;;;;;19.78;49.68;100436.13;4994394;28;20081;-55
2022/05/29 11:39:07;;;;;;;2.17;1.08;;;;;;;19.93;49.40;100437.09;4994252;28;20069;-54
2022/05/29 11:41:40;;;;;;;3.58;1.08;;;;;;;20.05;49.13;100441.72;4994227;28;20054;-53
2022/05/29 11:44:19;;;;;;;1.50;1.05;;;;;;;20.15;48.67;100435.91;4995443;28;20058;-52
2022/05/29 11:52:31;;;;;;;2.72;1.38;;;;;;;20.38;48.17;100428.59;4993442;28;20061;-53
2022/05/29 11:55:03;;;;;;;6.82;1.33;;;;;;;20.40;47.52;100426.75;4993669;28;20062;-52
2022/05/29 11:57:37;;;;;;;3.58;1.15;;;;;;;20.32;47.38;100434.19;4993880;28;20057;-55
2022/05/29 12:00:09;;;;;;;4.00;1.13;;;;;;;20.25;47.52;100432.78;4994188;28;20054;-55
2022/05/29 12:02:45;;;;;;;2.72;1.52;;;;;;;20.16;47.89;100434.97;4993737;28;20481;-52
2022/05/29 12:05:27;;;;;;;2.25;1.20;;;;;;;20.07;47.83;100434.59;4994294;28;20050;-51
2022/05/29 12:08:01;;;;;;;3.33;1.40;;;;;;;19.96;47.76;100437.78;4993706;28;20137;-54
2022/05/29 12:10:32;;;;;;;3.72;1.50;;;;;;;19.83;48.40;100437.59;4993518;28;20058;-52
2022/05/29 12:13:03;;;;;;;4.70;1.50;;;;;;;19.77;48.35;100437.91;4994035;28;20057;-54
2022/05/29 12:15:31;;;;;;;3.45;1.40;;;;;;;19.75;48.44;100438.88;4996364;28;20058;-54